Shirley, United Kingdom
Current Conditions -  °F | °C
As of 11:20 AM on Friday 31 Oct 2014 (Local Time) from EGBB Reporting Station
Clear Clear  
Wind Chill: 63°   Ceiling: Unl
Heat Index: 63°   Visibility: 5mi
Dew Point: 57°   Wind: 13mph
Humidity: 82%   Direction: 150°SSE
Pressure: 29.94"   Gusts: NA
Location:  52.41°N, 1.83°W
Report Text: EGBB 311120Z 15011KT 8000 NSC 17/14 Q1014
Loading
Personal Weather Stations






























Interactive Weather Map New forecast layout! Learn more

10-Day Weather Forecast

Advertisements
Track Severe Weather on mobile